• Join FlightAware (Why Join?)
  • Login
  • US Flag 
01:56PM EST


 

Airport Tracker/Info


-or-


 

Live Flight TrackerFlight Track Log ✈ CTA400 ✈ 10-Jun-2013 ✈ KADS - KLBB

Flight Track Log - Related Links

Times and Time Zones

All times are in EDT time to prevent confusion due to time zone crossing. See the CTA400 flight status page for this flight to view local times or setup timezone preferences in your user account.

Time Position Orientation Groundspeed Altitude Reporting Facility
EDT Latitude Longitude Course Direction KTS MPH feet Rate Location/Type
08:16AM 32.9667 -96.8333 140° Southeast 105 121 1,000  Level Dallas / Fort Worth TRACON
08:17AM 32.9500 -96.8167 140° Southeast 119 137 2,100 1,260 Climbing Dallas / Fort Worth TRACON
08:18AM 32.9000 -96.8167 180° South 104 120 3,300 720 Climbing Dallas / Fort Worth TRACON
08:19AM 32.8833 -96.8500 239° Southwest 175 201 3,600 420 Climbing Dallas / Fort Worth TRACON
08:20AM 32.9000 -96.9000 292° West 165 190 4,100 240 Climbing Dallas / Fort Worth TRACON
08:21AM 32.9000 -96.9667 270° West 187 215 4,100  Level Dallas / Fort Worth TRACON
08:22AM 32.9000 -97.0333 270° West 194 223 4,100  Level Dallas / Fort Worth TRACON
08:23AM 32.9000 -97.1000 270° West 191 220 4,100  Level Dallas / Fort Worth TRACON
08:24AM 32.9000 -97.1500 270° West 191 220 4,100  Level Dallas / Fort Worth TRACON
08:25AM 32.9000 -97.2167 270° West 192 221 4,100  Level Dallas / Fort Worth TRACON
08:26AM 32.9000 -97.2833 270° West 190 219 4,100 300 Level Dallas / Fort Worth TRACON
08:27AM 32.9167 -97.3333 292° West 178 205 4,700 600 Climbing Dallas / Fort Worth TRACON
08:28AM 32.9167 -97.4000 270° West 179 206 5,400 660 Climbing Dallas / Fort Worth TRACON
08:29AM 32.9333 -97.4500 292° West 167 192 6,100 540 Climbing Dallas / Fort Worth TRACON
08:30AM 32.9500 -97.5000 292° West 173 199 6,500 240 Climbing Dallas / Fort Worth TRACON
08:31AM 32.9500 -97.5667 270° West 190 219 6,600  Climbing Dallas / Fort Worth TRACON
08:32AM 32.9647 -97.6214 288° West 197 227 6,600 180 Level Fort Worth Center
08:33AM 32.9772 -97.6733 286° West 197 227 7,000 360 Climbing Fort Worth Center
08:34AM 32.9917 -97.7378 285° West 187 215 7,400 420 Climbing Fort Worth Center
08:35AM 33.0019 -97.7875 284° West 182 209 7,900 480 Climbing Fort Worth Center
08:36AM 33.0164 -97.8469 286° West 182 209 8,400 360 Climbing Fort Worth Center
08:37AM 33.0244 -97.8992 280° West 182 209 8,700 120 Climbing Fort Worth Center
08:38AM 33.0325 -97.9661 278° West 187 215 8,700 -60 Level Fort Worth Center
08:39AM 33.0364 -98.0231 275° West 187 215 8,600 -60 Descending Fort Worth Center
08:40AM 33.0444 -98.0900 278° West 193 222 8,600 -60 Level Fort Worth Center
08:41AM 33.0567 -98.1472 284° West 193 222 8,500 -60 Descending Fort Worth Center
08:42AM 33.0689 -98.2142 282° West 199 229 8,500  Level Fort Worth Center
08:43AM 33.0789 -98.2736 281° West 199 229 8,500  Level Fort Worth Center
08:44AM 33.0886 -98.3408 280° West 194 223 8,600  Climbing Fort Worth Center
08:45AM 33.1008 -98.3981 284° West 194 223 8,600 -60 Level Fort Worth Center
08:46AM 33.1169 -98.4675 286° West 199 229 8,500 -60 Descending Fort Worth Center
08:47AM 33.1269 -98.5297 281° West 204 235 8,500  Level Fort Worth Center
08:48AM 33.1347 -98.5919 279° West 199 229 8,500  Level Fort Worth Center
08:49AM 33.1444 -98.6539 281° West 199 229 8,500  Level Fort Worth Center
08:50AM 33.1522 -98.7161 279° West 199 229 8,500  Level Fort Worth Center
08:51AM 33.1642 -98.7808 282° West 199 229 8,500  Level Fort Worth Center
08:52AM 33.1758 -98.8431 283° West 199 229 8,500  Level Fort Worth Center
08:53AM 33.1856 -98.9053 281° West 199 229 8,500  Level Fort Worth Center
08:54AM 33.1975 -98.9650 283° West 199 229 8,500  Level Fort Worth Center
08:55AM 33.2092 -99.0272 283° West 199 229 8,500  Level Fort Worth Center
08:56AM 33.2208 -99.0897 283° West 199 229 8,500  Level Fort Worth Center
08:57AM 33.2306 -99.1494 281° West 199 229 8,600 60 Climbing Fort Worth Center
08:58AM 33.2400 -99.2142 280° West 199 229 8,700  Climbing Fort Worth Center
08:59AM 33.2517 -99.2714 284° West 199 229 8,700 -180 Level Fort Worth Center
09:00AM 33.2653 -99.3339 285° West 199 229 8,400 -120 Descending Fort Worth Center
09:01AM 33.2831 -99.3989 288° West 204 235 8,500 120 Climbing Fort Worth Center
09:02AM 33.2967 -99.4589 285° West 199 229 8,700  Climbing Fort Worth Center
09:03AM 33.3103 -99.5164 286° West 194 223 8,600 -120 Descending Fort Worth Center
09:04AM 33.3239 -99.5789 285° West 194 223 8,500 -60 Descending Fort Worth Center
09:05AM 33.3394 -99.6439 286° West 194 223 8,500  Level Fort Worth Center
09:06AM 33.3572 -99.7039 290° West 194 223 8,600  Climbing Fort Worth Center
09:07AM 33.3708 -99.7614 286° West 194 223 8,600  Level Fort Worth Center
09:08AM 33.3842 -99.8242 284° West 194 223 8,700  Climbing Fort Worth Center
09:09AM 33.3933 -99.8864 280° West 194 223 8,600 -120 Descending Fort Worth Center
09:10AM 33.4089 -99.9492 287° West 194 223 8,500 -60 Descending Fort Worth Center
09:11AM 33.4222 -100.0092 285° West 194 223 8,500  Level Fort Worth Center
09:12AM 33.4333 -100.0719 282° West 194 223 8,500  Level Fort Worth Center
09:13AM 33.4444 -100.1369 282° West 199 229 8,600  Climbing Fort Worth Center
09:14AM 33.4578 -100.1994 284° West 199 229 8,600  Level Fort Worth Center
09:15AM 33.4753 -100.2597 289° West 199 229 8,600 -60 Level Fort Worth Center
09:16AM 33.4906 -100.3200 287° West 199 229 8,500  Descending Fort Worth Center
09:17AM 33.5014 -100.3853 281° West 194 223 8,600  Climbing Fort Worth Center
09:18AM 33.5103 -100.4503 279° West 199 229 8,600  Level Fort Worth Center
09:19AM 33.5236 -100.5106 285° West 199 229 8,600  Level Fort Worth Center
09:20AM 33.5367 -100.5708 285° West 199 229 8,600  Level Fort Worth Center
09:21AM 33.5475 -100.6361 281° West 204 235 8,600 -60 Level Fort Worth Center
09:22AM 33.5542 -100.7011 277° West 199 229 8,500  Descending Fort Worth Center
09:23AM 33.5653 -100.7564 284° West 198 228 8,600 60 Climbing Fort Worth Center
09:24AM 33.5622 -100.7911 264° West 192 221 8,600  Level Fort Worth Center
09:24AM 33.5636 -100.8161 274° West 192 221 8,600  Level Fort Worth Center
09:25AM 33.5722 -100.8811 279° West 192 221 8,600  Level Fort Worth Center
09:26AM 33.5789 -100.9439 277° West 187 215 8,600  Level Fort Worth Center
09:27AM 33.5853 -101.0114 277° West 193 222 8,600  Level Fort Worth Center
09:28AM 33.5875 -101.0764 272° West 192 221 8,700  Climbing Fort Worth Center
09:29AM 33.5858 -101.1361 268° West 191 220 8,600 -60 Descending Fort Worth Center
09:30AM 33.5939 -101.2086 278° West 198 228 8,600  Level Fort Worth Center
09:31AM 33.5964 -101.2686 273° West 194 223 8,600 -60 Level Fort Worth Center
09:32AM 33.6028 -101.3339 277° West 193 222 8,500 -360 Descending Fort Worth Center
09:33AM 33.6111 -101.3964 279° West 195 224 7,900 -780 Descending Fort Worth Center
09:34AM 33.6281 -101.4572 289° West 196 226 7,000 -840 Descending Fort Worth Center
09:35AM 33.6428 -101.5178 286° West 187 215 6,300 -600 Descending Fort Worth Center
09:36AM 33.6575 -101.5783 286° West 181 208 5,800 -540 Descending Fort Worth Center
09:37AM 33.6639 -101.6311 278° West 181 208 5,300 -480 Descending Fort Worth Center
09:38AM 33.6642 -101.6858 270° West 148 170 4,900 -540 Descending Fort Worth Center
09:39AM 33.6628 -101.7308 268° West 123 142 4,300 -600 Descending Fort Worth Center
09:40AM 33.6592 -101.7706 264° West 113 130 3,800 -540 Descending Fort Worth Center
09:42AM 33.6500 -101.8167 279° West  Level FlightAware Approximate
09:49AM 33.6637 -101.8206 279° West  Level Estimated
09:50AM 33.6637 -101.8206 279° West  Level Estimated